Time;durP1;ratioP1;P1;durP2;ratioP2;P2;SDS_P1;SDS_P2;PMS_P1;PMS_P2;Temp;Humidity;BMP_temperature;BMP_pressure;BME280_temperature;BME280_humidity;BME280_pressure;Samples;Min_cycle;Max_cycle;Signal;HPM_P1;HPM_P2
2024/03/03 00:00:13;;;;;;;5.03;4.63;;;13.30;92.70;;;;;;4921711;29;20192;-62
2024/03/03 00:02:39;;;;;;;5.20;4.90;;;13.30;92.50;;;;;;4933786;29;20174;-62
2024/03/03 00:05:05;;;;;;;4.43;4.13;;;13.30;92.50;;;;;;4923012;29;20484;-62
2024/03/03 00:07:31;;;;;;;4.53;4.23;;;13.20;92.60;;;;;;4930983;29;20409;-62
2024/03/03 00:09:57;;;;;;;5.93;4.70;;;13.10;92.60;;;;;;4934771;29;20559;-62
2024/03/03 00:12:23;;;;;;;5.30;4.90;;;13.20;92.70;;;;;;4934061;29;20517;-62
2024/03/03 00:14:48;;;;;;;4.73;4.33;;;13.20;92.60;;;;;;4934324;29;20185;-62
2024/03/03 00:17:14;;;;;;;4.60;4.30;;;13.10;92.70;;;;;;4920603;29;20181;-62
2024/03/03 00:19:41;;;;;;;4.10;3.80;;;13.20;92.80;;;;;;4921643;29;20218;-62
2024/03/03 00:22:07;;;;;;;3.77;3.57;;;13.10;92.90;;;;;;4922801;29;20186;-62
2024/03/03 00:24:33;;;;;;;4.47;4.13;;;13.00;92.90;;;;;;4933316;29;20920;-62
2024/03/03 00:26:59;;;;;;;4.47;4.17;;;13.10;93.10;;;;;;4924395;29;20784;-62
2024/03/03 00:29:25;;;;;;;4.30;4.10;;;13.10;93.10;;;;;;4936275;29;20467;-62
2024/03/03 00:31:50;;;;;;;4.60;4.20;;;12.90;93.30;;;;;;4940921;29;20191;-62
2024/03/03 00:34:16;;;;;;;6.50;4.60;;;12.80;93.60;;;;;;4943267;29;20648;-62
2024/03/03 00:36:42;;;;;;;4.50;4.20;;;12.70;94.10;;;;;;4940461;29;20223;-62
2024/03/03 00:39:08;;;;;;;4.50;4.10;;;12.90;94.20;;;;;;4941163;29;20189;-62
2024/03/03 00:41:33;;;;;;;4.67;4.27;;;13.00;93.80;;;;;;4968334;28;20179;-62
2024/03/03 00:43:59;;;;;;;4.30;4.00;;;13.10;93.60;;;;;;4940939;29;20669;-62
2024/03/03 00:46:25;;;;;;;5.33;4.07;;;13.20;93.50;;;;;;4940064;29;20661;-62
2024/03/03 00:48:50;;;;;;;3.97;3.63;;;13.20;93.40;;;;;;4940964;29;20179;-62
2024/03/03 00:51:16;;;;;;;4.27;3.97;;;13.10;93.60;;;;;;4941359;29;20544;-62
2024/03/03 00:53:42;;;;;;;4.47;4.10;;;13.20;93.80;;;;;;4939883;29;21023;-62
2024/03/03 00:56:08;;;;;;;5.07;4.20;;;13.20;93.60;;;;;;4954937;28;20665;-62
2024/03/03 00:58:34;;;;;;;4.20;3.80;;;13.30;93.40;;;;;;4942732;29;20513;-62
2024/03/03 01:01:00;;;;;;;4.03;3.83;;;13.40;93.40;;;;;;4940906;29;20484;-62
2024/03/03 01:03:26;;;;;;;4.63;4.20;;;13.50;93.40;;;;;;4945116;29;20641;-62
2024/03/03 01:05:52;;;;;;;5.60;3.97;;;13.50;93.20;;;;;;4958725;29;20471;-62
2024/03/03 01:08:18;;;;;;;4.30;4.00;;;13.60;93.30;;;;;;4941015;29;20912;-62
2024/03/03 01:10:43;;;;;;;5.13;4.37;;;13.70;93.90;;;;;;4944457;29;20187;-62
2024/03/03 01:13:09;;;;;;;4.37;4.07;;;13.70;93.80;;;;;;4940602;29;20178;-62
2024/03/03 01:15:35;;;;;;;4.77;4.40;;;13.60;93.20;;;;;;4939822;29;20594;-62
2024/03/03 01:18:00;;;;;;;4.17;3.87;;;13.60;93.10;;;;;;4940784;29;20181;-62
2024/03/03 01:20:26;;;;;;;4.10;3.80;;;13.60;92.90;;;;;;4940026;29;20214;-62
2024/03/03 01:22:52;;;;;;;4.07;3.73;;;13.60;93.10;;;;;;4940688;29;20806;-62
2024/03/03 01:25:18;;;;;;;4.53;3.73;;;13.70;94.20;;;;;;4940601;29;20678;-62
2024/03/03 01:27:44;;;;;;;5.03;4.30;;;13.70;93.60;;;;;;4939887;29;20331;-61
2024/03/03 01:30:10;;;;;;;4.37;3.97;;;13.70;93.20;;;;;;4940957;29;20221;-62
2024/03/03 01:32:36;;;;;;;4.10;3.83;;;13.70;93.20;;;;;;4939890;29;20527;-62
2024/03/03 01:35:02;;;;;;;4.40;3.70;;;13.60;93.20;;;;;;4946353;29;20433;-62
2024/03/03 01:37:28;;;;;;;4.70;4.30;;;13.50;93.00;;;;;;4935371;29;20202;-62
2024/03/03 01:39:54;;;;;;;4.40;4.00;;;13.50;93.40;;;;;;4971357;28;20449;-62
2024/03/03 01:42:19;;;;;;;4.17;3.83;;;13.60;93.50;;;;;;4931091;29;20273;-62
2024/03/03 01:44:45;;;;;;;4.40;4.10;;;13.60;93.50;;;;;;4936514;29;20202;-62
2024/03/03 01:47:13;;;;;;;4.10;3.80;;;13.60;93.30;;;;;;4937652;29;20175;-62
2024/03/03 01:49:41;;;;;;;4.90;4.50;;;13.60;93.20;;;;;;4936591;29;20178;-62
2024/03/03 01:52:10;;;;;;;4.50;4.20;;;13.70;93.40;;;;;;4937657;29;20890;-62
2024/03/03 01:54:37;;;;;;;4.97;4.53;;;13.70;93.10;;;;;;4940659;29;20546;-62
2024/03/03 01:57:09;;;;;;;4.30;4.00;;;13.70;94.20;;;;;;4937617;29;20821;-62
2024/03/03 01:59:39;;;;;;;4.30;4.00;;;13.70;93.30;;;;;;4936738;29;20410;-62
2024/03/03 02:02:05;;;;;;;4.67;4.30;;;13.70;94.00;;;;;;4936979;29;20882;-62
2024/03/03 02:04:31;;;;;;;4.30;4.00;;;13.70;93.70;;;;;;4951225;29;20444;-62
2024/03/03 02:06:58;;;;;;;4.97;4.47;;;13.70;93.40;;;;;;4956746;29;20758;-62
2024/03/03 02:09:24;;;;;;;4.43;4.13;;;13.80;93.50;;;;;;4942393;29;20179;-62
2024/03/03 02:11:49;;;;;;;4.80;4.40;;;13.80;93.30;;;;;;4936537;29;20919;-62
2024/03/03 02:14:15;;;;;;;4.30;4.00;;;13.70;93.30;;;;;;4937220;29;20663;-62
2024/03/03 02:16:42;;;;;;;4.30;3.90;;;13.70;93.90;;;;;;4936285;29;20179;-62
2024/03/03 02:19:07;;;;;;;4.33;3.93;;;13.70;93.70;;;;;;4936854;29;20179;-62
2024/03/03 02:21:33;;;;;;;4.37;3.97;;;13.70;94.10;;;;;;4935789;29;20773;-62
2024/03/03 02:23:59;;;;;;;5.10;4.60;;;13.70;93.50;;;;;;4936932;29;20183;-62
2024/03/03 02:26:26;;;;;;;5.50;5.10;;;13.70;94.00;;;;;;4941837;29;20283;-62
2024/03/03 02:28:53;;;;;;;4.73;4.33;;;13.60;93.80;;;;;;4952306;29;20305;-62
2024/03/03 02:31:19;;;;;;;5.70;5.20;;;13.60;93.70;;;;;;4936529;29;21037;-62
2024/03/03 02:33:46;;;;;;;5.60;5.07;;;13.60;93.50;;;;;;4945076;29;20437;-62
2024/03/03 02:36:12;;;;;;;6.67;5.63;;;13.40;93.90;;;;;;4955818;29;20622;-62
2024/03/03 02:38:41;;;;;;;5.60;5.10;;;13.20;94.30;;;;;;4937888;29;20501;-62
2024/03/03 02:41:08;;;;;;;5.20;4.60;;;13.30;94.90;;;;;;4955837;29;20421;-62
2024/03/03 02:43:34;;;;;;;5.90;5.40;;;13.40;94.90;;;;;;4942776;29;20417;-62
2024/03/03 02:46:00;;;;;;;6.03;5.43;;;13.50;95.30;;;;;;4936379;29;20478;-62
2024/03/03 02:48:26;;;;;;;6.40;5.80;;;13.30;95.10;;;;;;4936409;29;20505;-62
2024/03/03 02:50:51;;;;;;;6.50;5.47;;;13.10;95.70;;;;;;4936019;29;20177;-62
2024/03/03 02:53:17;;;;;;;6.07;5.50;;;13.10;96.20;;;;;;4936037;29;20934;-62
2024/03/03 02:55:43;;;;;;;7.77;6.00;;;13.00;96.70;;;;;;4947712;29;20194;-61
2024/03/03 02:58:09;;;;;;;6.00;5.40;;;12.90;97.30;;;;;;4950820;29;20576;-61
2024/03/03 03:00:35;;;;;;;7.93;6.50;;;12.90;98.70;;;;;;4931730;29;20424;-62
2024/03/03 03:03:01;;;;;;;5.60;5.10;;;13.10;99.60;;;;;;4922410;29;20180;-62
2024/03/03 03:05:26;;;;;;;6.43;5.40;;;13.20;99.10;;;;;;4935858;29;20556;-62
2024/03/03 03:07:52;;;;;;;7.80;6.10;;;13.30;98.30;;;;;;4935347;29;20183;-62
2024/03/03 03:10:18;;;;;;;7.30;6.50;;;13.40;97.70;;;;;;4936427;29;20634;-62
2024/03/03 03:12:44;;;;;;;6.33;5.37;;;13.40;97.40;;;;;;4935377;29;20206;-62
2024/03/03 03:15:10;;;;;;;6.80;6.20;;;13.50;97.30;;;;;;4918955;29;20423;-62
2024/03/03 03:17:36;;;;;;;7.90;6.20;;;13.40;96.80;;;;;;4935408;29;20507;-62
2024/03/03 03:20:02;;;;;;;8.20;6.33;;;13.50;96.50;;;;;;4936015;29;20477;-62
2024/03/03 03:22:28;;;;;;;8.23;6.70;;;13.50;96.50;;;;;;4935561;29;20177;-62
2024/03/03 03:24:54;;;;;;;9.03;7.40;;;13.40;96.40;;;;;;4942817;29;20468;-62
2024/03/03 03:27:20;;;;;;;6.57;5.97;;;13.40;96.40;;;;;;4954619;29;20956;-61
2024/03/03 03:29:46;;;;;;;8.20;7.40;;;13.40;96.70;;;;;;4954291;29;20614;-62
2024/03/03 03:32:11;;;;;;;7.87;6.80;;;13.40;96.60;;;;;;4954749;29;20186;-62
2024/03/03 03:34:37;;;;;;;8.40;6.63;;;13.50;96.50;;;;;;4954044;29;20208;-62
2024/03/03 03:37:04;;;;;;;7.13;6.37;;;13.60;96.50;;;;;;4954815;29;20421;-62
2024/03/03 03:39:30;;;;;;;7.57;6.57;;;13.60;96.40;;;;;;4930606;29;20231;-62
2024/03/03 03:41:55;;;;;;;8.10;7.27;;;13.40;96.50;;;;;;4935457;29;20507;-62
2024/03/03 03:44:21;;;;;;;6.73;6.03;;;13.40;96.90;;;;;;4935167;29;20509;-62
2024/03/03 03:46:48;;;;;;;8.93;6.90;;;13.50;96.90;;;;;;4942371;29;20309;-62
2024/03/03 03:49:14;;;;;;;10.37;7.10;;;13.50;96.70;;;;;;4937447;29;20177;-62
2024/03/03 03:51:40;;;;;;;7.50;6.80;;;13.50;96.70;;;;;;4946428;29;20499;-62
2024/03/03 03:54:07;;;;;;;7.10;6.40;;;13.50;96.80;;;;;;4938417;29;20432;-62
2024/03/03 03:56:33;;;;;;;7.33;6.47;;;13.50;97.00;;;;;;4953800;29;20773;-62
2024/03/03 03:58:59;;;;;;;8.67;7.33;;;13.50;97.00;;;;;;4954258;29;20904;-62
2024/03/03 04:01:27;;;;;;;7.53;6.77;;;13.40;96.90;;;;;;4954222;29;20413;-62
2024/03/03 04:03:57;;;;;;;7.60;6.90;;;13.40;97.00;;;;;;4953447;28;21071;-62
2024/03/03 04:06:24;;;;;;;8.27;7.47;;;13.40;97.20;;;;;;4937175;29;20484;-62
2024/03/03 04:08:51;;;;;;;9.07;7.90;;;13.40;97.40;;;;;;4953648;29;20423;-62
2024/03/03 04:11:16;;;;;;;8.07;7.33;;;13.40;97.40;;;;;;4954303;29;20419;-62
2024/03/03 04:13:42;;;;;;;7.63;6.80;;;13.30;97.30;;;;;;4952531;29;20408;-62
2024/03/03 04:16:08;;;;;;;8.20;7.40;;;13.30;97.30;;;;;;4935118;29;20718;-62
2024/03/03 04:18:34;;;;;;;8.73;7.40;;;13.30;97.50;;;;;;4934884;29;20260;-62
2024/03/03 04:21:00;;;;;;;8.17;7.37;;;13.20;97.40;;;;;;4934525;29;20217;-62
2024/03/03 04:23:26;;;;;;;10.43;8.20;;;13.20;97.60;;;;;;4934842;29;20174;-62
2024/03/03 04:25:51;;;;;;;9.10;7.97;;;13.20;97.50;;;;;;4950663;29;20562;-62
2024/03/03 04:28:17;;;;;;;8.03;7.10;;;13.10;97.50;;;;;;4954011;29;20227;-62
2024/03/03 04:30:44;;;;;;;10.90;7.60;;;13.10;97.80;;;;;;4936503;29;20257;-62
2024/03/03 04:33:12;;;;;;;8.50;7.70;;;13.10;97.90;;;;;;4953905;29;20829;-62
2024/03/03 04:35:38;;;;;;;8.77;7.63;;;13.00;97.80;;;;;;4935349;29;20185;-62
2024/03/03 04:38:04;;;;;;;7.93;7.23;;;13.00;98.10;;;;;;4934633;29;20410;-62
2024/03/03 04:40:29;;;;;;;8.90;6.80;;;12.90;98.20;;;;;;4934454;29;20758;-62
2024/03/03 04:42:55;;;;;;;8.07;7.27;;;12.90;98.50;;;;;;4934057;29;20831;-62
2024/03/03 04:45:21;;;;;;;8.33;7.53;;;12.80;98.60;;;;;;4929486;29;20205;-62
2024/03/03 04:47:47;;;;;;;8.07;6.87;;;12.90;98.60;;;;;;4933762;29;20191;-62
2024/03/03 04:50:12;;;;;;;12.70;8.00;;;12.80;98.80;;;;;;4934921;29;20283;-62
2024/03/03 04:52:38;;;;;;;8.33;7.17;;;12.80;98.90;;;;;;4933735;29;20185;-62
2024/03/03 04:55:05;;;;;;;7.93;7.13;;;12.80;98.90;;;;;;4947843;29;20192;-62
2024/03/03 04:57:31;;;;;;;8.03;7.30;;;12.90;99.10;;;;;;4953700;29;20214;-62
2024/03/03 04:59:57;;;;;;;10.13;7.63;;;12.90;99.00;;;;;;4953070;29;20410;-62
2024/03/03 05:02:23;;;;;;;8.43;6.83;;;12.90;99.00;;;;;;4951534;29;20438;-62
2024/03/03 05:04:49;;;;;;;9.17;8.07;;;12.90;99.00;;;;;;4933577;29;20596;-62
2024/03/03 05:07:18;;;;;;;9.40;7.73;;;12.80;99.10;;;;;;4934747;29;20500;-62
2024/03/03 05:09:44;;;;;;;8.57;7.67;;;12.70;99.30;;;;;;4933796;29;20428;-62
2024/03/03 05:12:09;;;;;;;8.70;7.40;;;12.60;99.50;;;;;;4934681;29;20398;-62
2024/03/03 05:14:35;;;;;;;9.67;8.13;;;12.70;99.90;;;;;;4934082;29;20181;-62
2024/03/03 05:17:01;;;;;;;9.87;8.47;;;12.60;99.80;;;;;;4937134;29;20446;-62
2024/03/03 05:19:27;;;;;;;9.20;8.20;;;12.40;99.90;;;;;;4938174;29;20493;-62
2024/03/03 05:21:53;;;;;;;9.67;7.70;;;12.20;99.90;;;;;;4937405;29;20410;-62
2024/03/03 05:24:21;;;;;;;12.30;9.60;;;12.20;99.90;;;;;;4955575;29;20437;-62
2024/03/03 05:26:47;;;;;;;10.40;8.60;;;12.10;99.90;;;;;;4956110;29;20521;-62
2024/03/03 05:29:13;;;;;;;10.07;7.40;;;12.20;99.90;;;;;;4937861;29;20886;-62
2024/03/03 05:31:43;;;;;;;8.60;7.80;;;12.10;99.90;;;;;;4937316;29;20415;-62
2024/03/03 05:34:13;;;;;;;8.93;7.60;;;12.20;99.90;;;;;;4937711;29;20413;-62
2024/03/03 05:36:40;;;;;;;12.00;8.07;;;12.30;99.90;;;;;;4937347;29;20752;-62
2024/03/03 05:39:06;;;;;;;11.10;9.00;;;12.40;99.90;;;;;;4937830;29;20766;-62
2024/03/03 05:41:31;;;;;;;8.77;7.93;;;12.50;99.90;;;;;;4937745;29;20412;-62
2024/03/03 05:43:57;;;;;;;9.00;8.10;;;12.50;99.90;;;;;;4937374;29;20688;-62
2024/03/03 05:46:23;;;;;;;8.80;7.90;;;12.60;99.90;;;;;;4937458;29;20732;-62
2024/03/03 05:48:49;;;;;;;8.40;7.53;;;12.70;99.90;;;;;;4936764;29;20254;-62
2024/03/03 05:51:16;;;;;;;9.67;8.47;;;12.80;99.90;;;;;;4937610;29;20759;-62
2024/03/03 05:53:42;;;;;;;10.50;8.40;;;12.80;99.90;;;;;;4935658;29;20180;-62
2024/03/03 05:56:12;;;;;;;10.23;7.93;;;12.80;99.90;;;;;;4938371;29;20422;-62
2024/03/03 05:58:37;;;;;;;10.47;7.83;;;12.70;99.90;;;;;;4939083;29;20433;-62
2024/03/03 06:01:04;;;;;;;10.30;7.80;;;12.70;99.90;;;;;;4956424;29;20416;-62
2024/03/03 06:03:29;;;;;;;11.33;9.00;;;12.70;99.90;;;;;;4945366;29;20177;-62
2024/03/03 06:05:55;;;;;;;9.83;8.40;;;12.70;99.90;;;;;;4936193;29;20807;-62
2024/03/03 06:08:21;;;;;;;13.07;9.27;;;12.70;99.90;;;;;;4937140;29;20666;-64
2024/03/03 06:10:47;;;;;;;11.50;9.37;;;12.60;99.90;;;;;;4966046;28;20181;-63
2024/03/03 06:13:12;;;;;;;10.50;8.73;;;12.60;99.90;;;;;;4948263;29;20277;-64
2024/03/03 06:15:38;;;;;;;10.77;9.03;;;12.60;99.90;;;;;;4956177;29;20184;-61
2024/03/03 06:18:04;;;;;;;10.10;8.40;;;12.70;99.90;;;;;;4945316;29;20243;-63
2024/03/03 06:20:31;;;;;;;12.10;8.57;;;12.70;99.90;;;;;;4937034;29;20896;-67
2024/03/03 06:22:57;;;;;;;10.67;9.43;;;12.80;99.90;;;;;;4935502;29;20784;-61
2024/03/03 06:25:23;;;;;;;11.90;9.00;;;12.80;99.90;;;;;;4955551;29;20459;-63
2024/03/03 06:27:49;;;;;;;11.83;9.47;;;12.90;99.90;;;;;;4954875;28;20801;-63
2024/03/03 06:30:15;;;;;;;9.90;8.90;;;12.90;99.90;;;;;;4938690;29;20652;-63
2024/03/03 06:32:41;;;;;;;9.40;7.93;;;12.90;99.90;;;;;;4955642;29;20416;-61
2024/03/03 06:35:12;;;;;;;9.00;8.20;;;13.00;99.90;;;;;;4941487;29;20184;-63
2024/03/03 06:37:38;;;;;;;9.93;8.93;;;13.00;99.90;;;;;;4936833;29;20445;-63
2024/03/03 06:40:05;;;;;;;13.43;9.83;;;12.90;99.90;;;;;;4934974;29;20460;-63
2024/03/03 06:42:34;;;;;;;9.17;8.00;;;12.90;99.90;;;;;;4910942;29;20953;-62
2024/03/03 06:45:00;;;;;;;9.87;8.90;;;12.80;99.90;;;;;;4923815;29;20479;-62
2024/03/03 06:47:29;;;;;;;8.50;7.60;;;12.70;99.90;;;;;;4933061;29;20421;-63
2024/03/03 06:49:55;;;;;;;9.53;8.60;;;12.70;99.90;;;;;;4924180;29;20436;-63
2024/03/03 06:52:23;;;;;;;8.20;7.40;;;12.70;99.90;;;;;;4936332;29;20409;-63
2024/03/03 06:54:49;;;;;;;9.33;8.43;;;12.80;99.90;;;;;;4951288;29;20188;-62
2024/03/03 06:57:15;;;;;;;9.20;8.30;;;12.80;99.90;;;;;;4955382;29;20916;-63
2024/03/03 06:59:40;;;;;;;7.90;7.20;;;12.80;99.90;;;;;;4953952;29;20222;-60
2024/03/03 07:02:06;;;;;;;9.40;8.53;;;12.70;99.90;;;;;;4935614;29;20622;-63
2024/03/03 07:04:32;;;;;;;8.50;7.70;;;12.80;99.90;;;;;;4935740;29;20636;-62
2024/03/03 07:06:58;;;;;;;9.27;8.27;;;12.80;99.90;;;;;;4929458;29;20211;-62
2024/03/03 07:09:24;;;;;;;8.60;7.77;;;12.80;99.90;;;;;;4955309;29;20941;-62
2024/03/03 07:11:55;;;;;;;9.13;8.23;;;12.80;99.90;;;;;;4954564;29;20180;-61
2024/03/03 07:14:22;;;;;;;11.67;8.00;;;12.80;99.90;;;;;;4935118;29;20410;-62
2024/03/03 07:16:48;;;;;;;9.57;8.60;;;12.80;99.90;;;;;;4931968;29;20434;-61
2024/03/03 07:19:14;;;;;;;9.47;8.37;;;12.80;99.90;;;;;;4935995;29;20468;-62
2024/03/03 07:21:40;;;;;;;8.83;7.93;;;12.80;99.90;;;;;;4935411;29;20425;-62
2024/03/03 07:24:06;;;;;;;8.60;7.60;;;12.80;99.90;;;;;;4939339;29;20447;-62
2024/03/03 07:26:31;;;;;;;10.47;9.37;;;12.80;99.90;;;;;;4935553;29;20482;-62
2024/03/03 07:28:57;;;;;;;10.23;8.40;;;12.80;99.90;;;;;;4934744;29;20256;-61
2024/03/03 07:31:23;;;;;;;11.03;9.30;;;12.70;99.90;;;;;;4931467;29;20660;-61
2024/03/03 07:33:49;;;;;;;10.23;9.13;;;12.60;99.90;;;;;;4931318;29;20185;-61
2024/03/03 07:36:15;;;;;;;9.63;8.60;;;12.60;99.90;;;;;;4932309;29;20553;-61
2024/03/03 07:38:40;;;;;;;9.23;8.30;;;12.50;99.90;;;;;;4931580;29;20186;-61
2024/03/03 07:41:06;;;;;;;9.10;8.20;;;12.50;99.90;;;;;;4923806;29;20181;-61
2024/03/03 07:43:32;;;;;;;10.03;8.90;;;12.50;99.90;;;;;;4931429;29;20195;-62
2024/03/03 07:45:58;;;;;;;10.70;9.40;;;12.50;99.90;;;;;;4931175;29;20216;-61
2024/03/03 07:48:24;;;;;;;11.57;10.00;;;12.50;99.90;;;;;;4932026;29;20757;-62
2024/03/03 07:50:51;;;;;;;10.90;9.80;;;12.60;99.90;;;;;;4931010;29;20837;-61
2024/03/03 07:53:17;;;;;;;10.13;8.73;;;12.60;99.90;;;;;;4936490;29;20447;-61
2024/03/03 07:55:43;;;;;;;10.17;8.87;;;12.60;99.90;;;;;;4938369;29;20443;-60
2024/03/03 07:58:09;;;;;;;10.77;9.70;;;12.70;99.90;;;;;;4950682;29;21151;-62
2024/03/03 08:00:35;;;;;;;10.27;9.30;;;12.80;99.90;;;;;;4933652;29;20431;-62
2024/03/03 08:03:01;;;;;;;9.80;7.83;;;12.90;99.90;;;;;;4937234;29;20504;-61
2024/03/03 08:05:29;;;;;;;10.80;9.67;;;13.00;99.90;;;;;;4933411;29;20216;-62
2024/03/03 08:07:55;;;;;;;9.70;8.77;;;13.10;99.90;;;;;;4934347;29;20410;-62
2024/03/03 08:10:20;;;;;;;10.50;9.13;;;13.20;99.90;;;;;;4935150;29;20462;-62
2024/03/03 08:12:47;;;;;;;9.17;8.47;;;13.30;99.90;;;;;;4934938;29;20194;-62
2024/03/03 08:15:12;;;;;;;11.17;10.07;;;13.40;99.90;;;;;;4934347;29;20217;-62
2024/03/03 08:17:38;;;;;;;11.00;10.00;;;13.50;99.90;;;;;;4934934;29;20459;-63
2024/03/03 08:20:05;;;;;;;10.73;9.30;;;13.60;99.90;;;;;;4916683;29;20178;-62
2024/03/03 08:22:30;;;;;;;11.77;10.30;;;13.90;99.90;;;;;;4931512;29;20918;-63
2024/03/03 08:24:56;;;;;;;10.53;9.43;;;14.20;99.90;;;;;;4948704;29;20474;-63
2024/03/03 08:27:22;;;;;;;14.40;11.00;;;14.50;99.90;;;;;;4934181;29;20693;-63
2024/03/03 08:29:48;;;;;;;11.63;10.53;;;14.80;99.90;;;;;;4933701;29;20621;-62
2024/03/03 08:32:13;;;;;;;11.40;10.20;;;15.10;99.80;;;;;;4933487;29;20582;-63
2024/03/03 08:34:40;;;;;;;10.60;9.60;;;15.30;98.90;;;;;;4932016;29;20176;-63
2024/03/03 08:37:05;;;;;;;10.40;9.20;;;15.50;97.30;;;;;;4916099;29;20188;-62
2024/03/03 08:39:31;;;;;;;12.07;9.67;;;15.60;96.10;;;;;;4933655;29;20400;-63
2024/03/03 08:41:57;;;;;;;9.27;8.33;;;15.80;96.10;;;;;;4932908;29;20638;-63
2024/03/03 08:44:23;;;;;;;11.80;9.50;;;15.90;96.30;;;;;;4917710;29;20178;-63
2024/03/03 08:46:50;;;;;;;9.23;8.43;;;16.10;96.60;;;;;;4934035;29;20500;-63
2024/03/03 08:49:16;;;;;;;9.60;8.70;;;16.10;94.80;;;;;;4934236;29;20189;-63
2024/03/03 08:51:42;;;;;;;10.57;9.57;;;16.20;94.80;;;;;;4938300;29;20468;-63
2024/03/03 08:54:08;;;;;;;9.60;8.73;;;16.30;94.30;;;;;;4937888;29;20252;-63
2024/03/03 08:56:34;;;;;;;10.83;9.77;;;16.30;94.40;;;;;;4938425;29;20921;-63
2024/03/03 08:59:00;;;;;;;10.63;9.60;;;16.50;94.10;;;;;;4937966;29;20416;-63
2024/03/03 09:01:25;;;;;;;10.50;9.53;;;16.50;93.40;;;;;;4938719;29;20660;-63
2024/03/03 09:03:51;;;;;;;9.63;8.80;;;16.50;92.90;;;;;;4943597;29;20192;-62
2024/03/03 09:06:17;;;;;;;9.63;8.73;;;16.60;92.80;;;;;;4942631;29;20217;-63
2024/03/03 09:08:44;;;;;;;10.80;9.80;;;16.70;92.90;;;;;;4942503;29;20189;-63
2024/03/03 09:11:12;;;;;;;9.40;8.50;;;16.70;92.30;;;;;;4956752;29;20173;-63
2024/03/03 09:13:38;;;;;;;9.27;8.27;;;16.60;92.60;;;;;;4946353;29;20956;-62
2024/03/03 09:16:05;;;;;;;10.27;9.17;;;16.60;93.00;;;;;;4937295;29;20756;-65
2024/03/03 09:18:31;;;;;;;9.87;8.87;;;16.70;93.00;;;;;;4937848;29;20417;-61
2024/03/03 09:20:57;;;;;;;9.93;8.87;;;16.80;92.70;;;;;;4937043;29;20409;-61
2024/03/03 09:23:22;;;;;;;11.20;10.00;;;16.80;92.40;;;;;;4936850;29;20260;-61
2024/03/03 09:25:48;;;;;;;11.67;10.47;;;16.90;92.20;;;;;;4937479;29;20252;-61
2024/03/03 09:28:14;;;;;;;11.00;9.90;;;17.00;91.60;;;;;;4932849;29;20225;-61
2024/03/03 09:30:40;;;;;;;10.83;9.67;;;17.00;92.20;;;;;;4933574;29;20193;-61
2024/03/03 09:33:06;;;;;;;10.80;9.77;;;17.20;93.60;;;;;;4944938;29;20194;-61
2024/03/03 09:35:31;;;;;;;11.83;10.67;;;17.40;92.40;;;;;;4947547;29;20200;-61
2024/03/03 09:37:57;;;;;;;11.60;10.40;;;17.60;92.30;;;;;;4936990;29;20417;-61
2024/03/03 09:40:23;;;;;;;11.27;10.20;;;17.70;91.60;;;;;;4934119;29;20631;-61
2024/03/03 09:42:52;;;;;;;9.70;8.80;;;17.90;91.70;;;;;;4937728;29;20284;-62
2024/03/03 09:45:20;;;;;;;10.40;9.40;;;18.00;90.90;;;;;;4953658;29;20522;-61
2024/03/03 09:47:47;;;;;;;9.80;8.90;;;18.00;89.50;;;;;;4953678;29;20397;-61
2024/03/03 09:50:14;;;;;;;9.83;9.00;;;18.00;87.50;;;;;;4942580;29;20464;-61
2024/03/03 09:52:44;;;;;;;10.17;8.53;;;18.00;87.60;;;;;;4933251;29;20418;-61
2024/03/03 09:55:11;;;;;;;10.93;9.80;;;18.20;87.70;;;;;;4933266;29;20434;-61
2024/03/03 09:57:40;;;;;;;9.97;9.07;;;18.40;89.60;;;;;;4934231;29;20465;-61
2024/03/03 10:00:07;;;;;;;10.90;9.80;;;18.60;87.50;;;;;;4933773;29;20509;-61
2024/03/03 10:02:37;;;;;;;10.60;9.50;;;18.80;87.30;;;;;;4902578;29;20453;-62
2024/03/03 10:05:05;;;;;;;10.97;9.90;;;19.00;88.10;;;;;;4933251;29;20413;-61
2024/03/03 10:07:45;;;;;;;10.93;9.47;;;19.20;86.80;;;;;;4933584;29;20472;-61
2024/03/03 10:10:17;;;;;;;9.70;8.80;;;19.40;83.30;;;;;;4933394;29;20416;-61
2024/03/03 10:12:46;;;;;;;9.20;8.50;;;19.30;84.20;;;;;;4933017;29;20496;-61
2024/03/03 10:15:12;;;;;;;9.23;8.33;;;19.30;86.00;;;;;;4933737;29;20429;-61
2024/03/03 10:17:38;;;;;;;9.27;8.37;;;19.40;83.50;;;;;;4929197;29;20512;-61
2024/03/03 10:20:08;;;;;;;10.13;9.20;;;19.60;82.40;;;;;;4932673;29;20512;-61
2024/03/03 10:22:34;;;;;;;10.37;9.30;;;19.70;81.00;;;;;;4933420;29;20398;-62
2024/03/03 10:25:15;;;;;;;10.20;9.13;;;19.50;80.20;;;;;;4932941;29;20421;-61
2024/03/03 10:27:48;;;;;;;9.20;8.40;;;19.50;81.50;;;;;;4933304;29;20580;-61
2024/03/03 10:30:17;;;;;;;9.90;8.50;;;19.50;80.60;;;;;;4941162;29;20433;-61
2024/03/03 10:32:45;;;;;;;10.10;8.97;;;19.60;82.80;;;;;;4933543;29;20433;-62
2024/03/03 10:35:12;;;;;;;11.27;10.27;;;19.70;81.10;;;;;;4933126;29;20422;-61
2024/03/03 10:38:01;;;;;;;10.50;9.50;;;19.70;80.50;;;;;;4932954;29;20421;-61
2024/03/03 10:40:32;;;;;;;11.03;10.03;;;19.70;81.90;;;;;;4932764;29;20444;-61
2024/03/03 10:42:57;;;;;;;10.60;9.70;;;19.90;83.50;;;;;;4932094;29;20428;-61
2024/03/03 10:45:24;;;;;;;9.40;8.53;;;20.20;81.40;;;;;;4926787;29;20457;-62
2024/03/03 10:47:50;;;;;;;10.77;9.70;;;20.40;82.90;;;;;;4951650;29;20649;-61
2024/03/03 10:50:18;;;;;;;10.97;9.83;;;20.60;82.10;;;;;;4942631;29;20425;-66
2024/03/03 10:52:44;;;;;;;11.07;10.07;;;20.90;80.70;;;;;;4936437;29;20409;-61
2024/03/03 10:55:11;;;;;;;9.57;8.67;;;21.10;79.40;;;;;;4935302;29;20561;-61
2024/03/03 10:57:38;;;;;;;9.10;8.40;;;21.30;80.50;;;;;;4925989;29;20850;-62
2024/03/03 11:00:05;;;;;;;11.13;10.13;;;21.60;74.20;;;;;;4918476;29;20433;-62
2024/03/03 11:02:33;;;;;;;10.97;9.93;;;21.80;75.70;;;;;;4936847;29;20425;-63
2024/03/03 11:05:04;;;;;;;9.63;8.80;;;22.00;73.00;;;;;;4919095;29;20398;-62
2024/03/03 11:07:31;;;;;;;11.23;9.70;;;22.20;74.50;;;;;;4935499;29;20417;-63
2024/03/03 11:09:57;;;;;;;9.70;8.80;;;22.30;71.90;;;;;;4936091;29;20445;-63
2024/03/03 11:12:27;;;;;;;11.50;10.40;;;22.40;72.10;;;;;;4935481;29;20484;-63
2024/03/03 11:14:56;;;;;;;12.30;11.10;;;22.20;71.50;;;;;;4933873;29;20479;-62
2024/03/03 11:17:28;;;;;;;11.50;10.30;;;22.00;74.40;;;;;;4935838;29;20394;-63
2024/03/03 11:19:59;;;;;;;11.63;10.63;;;22.20;73.30;;;;;;4927343;29;20402;-62
2024/03/03 11:22:26;;;;;;;12.63;11.53;;;22.40;74.00;;;;;;4941407;29;20429;-62
2024/03/03 11:25:02;;;;;;;12.37;11.27;;;22.20;70.50;;;;;;4935412;29;20422;-62
2024/03/03 11:27:31;;;;;;;12.23;11.03;;;22.20;71.50;;;;;;4954004;28;20500;-62
2024/03/03 11:29:57;;;;;;;12.17;11.07;;;22.40;73.40;;;;;;4907981;29;20437;-62
2024/03/03 11:32:29;;;;;;;13.17;12.07;;;22.50;72.50;;;;;;4951894;28;20414;-63
2024/03/03 11:34:56;;;;;;;12.93;11.70;;;22.60;69.70;;;;;;4927598;29;20401;-62
2024/03/03 11:37:23;;;;;;;12.30;11.03;;;22.70;70.60;;;;;;4935669;29;20420;-63
2024/03/03 11:39:56;;;;;;;15.30;13.90;;;22.70;71.40;;;;;;4935510;29;20516;-65
2024/03/03 11:42:32;;;;;;;12.53;11.53;;;22.50;68.00;;;;;;4933997;29;20882;-64
2024/03/03 11:44:59;;;;;;;12.40;11.40;;;22.40;70.00;;;;;;4934321;29;20428;-63
2024/03/03 11:47:29;;;;;;;14.47;13.27;;;22.50;71.40;;;;;;4947102;29;20433;-64
2024/03/03 11:49:56;;;;;;;11.50;10.53;;;22.80;69.50;;;;;;4942632;29;20424;-68
2024/03/03 11:52:44;;;;;;;11.27;10.17;;;23.00;69.20;;;;;;4934013;29;20746;-64
2024/03/03 11:55:17;;;;;;;10.83;9.90;;;23.10;66.40;;;;;;4934817;29;20410;-64
2024/03/03 11:57:46;;;;;;;11.30;10.40;;;23.20;64.40;;;;;;4934077;29;20755;-64
2024/03/03 12:00:17;;;;;;;10.30;9.50;;;23.20;62.60;;;;;;4920434;29;20440;-65
2024/03/03 12:02:44;;;;;;;11.07;10.10;;;23.10;62.80;;;;;;4932367;29;21049;-64
2024/03/03 12:05:14;;;;;;;11.27;10.17;;;23.20;65.70;;;;;;4933791;29;20461;-63
2024/03/03 12:07:45;;;;;;;11.40;10.50;;;23.10;87.70;;;;;;4934881;29;20883;-63
2024/03/03 12:10:15;;;;;;;11.00;10.20;;;23.20;66.20;;;;;;4933693;29;20436;-66
2024/03/03 12:12:46;;;;;;;11.00;10.00;;;23.30;64.50;;;;;;4934253;29;20480;-63
2024/03/03 12:15:11;;;;;;;12.07;10.87;;;23.60;91.80;;;;;;4933644;29;20414;-63
2024/03/03 12:17:37;;;;;;;11.27;10.27;;;22.50;88.90;;;;;;4935438;29;20424;-63
2024/03/03 12:20:05;;;;;;;11.63;10.57;;;22.80;65.00;;;;;;4933663;29;20680;-64
2024/03/03 12:22:35;;;;;;;11.13;10.10;;;22.70;65.30;;;;;;4935145;29;20836;-64
2024/03/03 12:25:01;;;;;;;10.80;9.80;;;22.30;81.70;;;;;;4933725;29;20417;-64
2024/03/03 12:27:27;;;;;;;12.23;11.13;;;22.30;85.60;;;;;;4942446;29;20425;-64
2024/03/03 12:30:09;;;;;;;10.97;9.87;;;22.00;86.90;;;;;;4921408;29;20557;-65
2024/03/03 12:32:36;;;;;;;11.67;10.13;;;21.90;67.30;;;;;;4935260;29;20413;-64
2024/03/03 12:35:02;;;;;;;11.17;10.20;;;21.90;67.90;;;;;;4926861;29;20406;-63
2024/03/03 12:37:28;;;;;;;11.43;10.40;;;;;;;;;;4935388;29;20409;-63